createdAt,value
2023-04-25T03:40:09.014Z,92.88
2023-04-25T03:43:11.643Z,92.89
2023-04-25T03:45:45.289Z,92.84
2023-04-25T03:48:17.681Z,92.63
2023-04-25T03:50:49.932Z,92.76
2023-04-25T03:53:22.201Z,92.57
2023-04-25T03:56:37.147Z,92.73
2023-04-25T03:59:16.679Z,92.48
2023-04-25T04:01:49.075Z,92.73
2023-04-25T04:04:21.642Z,93.09
2023-04-25T04:06:54.740Z,93.17
2023-04-25T04:09:33.677Z,93.01
2023-04-25T04:12:09.972Z,93.00
2023-04-25T04:14:44.318Z,92.79
2023-04-25T04:17:21.661Z,93.09
2023-04-25T04:19:54.394Z,92.89
2023-04-25T04:22:27.173Z,93.03
2023-04-25T04:25:04.328Z,93.05
2023-04-25T04:27:55.955Z,93.10
2023-04-25T04:34:03.269Z,92.62
2023-04-25T04:36:36.337Z,92.77
2023-04-25T04:39:10.204Z,92.69
2023-04-25T04:41:54.632Z,92.37
2023-04-25T04:44:45.755Z,92.65
2023-04-25T04:47:33.686Z,92.52
2023-04-25T04:50:40.033Z,92.57
2023-04-25T04:53:15.326Z,92.42
2023-04-25T04:56:02.175Z,92.39
2023-04-25T04:58:58.553Z,92.47
2023-04-25T05:01:49.833Z,92.38
2023-04-25T05:04:42.427Z,92.59
2023-04-25T05:07:30.523Z,92.44
2023-04-25T05:10:26.429Z,92.31
2023-04-25T05:13:11.184Z,92.40
2023-04-25T05:16:00.568Z,92.62
2023-04-25T05:18:32.839Z,92.66
2023-04-25T05:21:16.236Z,92.74
2023-04-25T05:23:54.850Z,92.60
2023-04-25T05:26:45.606Z,92.68
2023-04-25T05:29:28.866Z,92.62
2023-04-25T05:32:13.941Z,92.21
2023-04-25T05:34:46.704Z,92.22
2023-04-25T05:37:28.329Z,92.28
2023-04-25T05:40:07.793Z,92.23
2023-04-25T05:42:48.515Z,92.12
2023-04-25T05:45:47.124Z,92.03
2023-04-25T05:48:35.948Z,92.08
2023-04-25T05:51:23.003Z,91.69
2023-04-25T05:53:55.229Z,91.98
2023-04-25T05:56:27.546Z,92.20
2023-04-25T05:59:00.283Z,92.15
2023-04-25T06:01:32.497Z,92.00
2023-04-25T06:04:04.941Z,92.28
2023-04-25T06:06:38.972Z,92.18
2023-04-25T06:09:13.330Z,91.95
2023-04-25T06:11:52.430Z,92.08
2023-04-25T06:14:24.839Z,92.15
2023-04-25T06:16:57.152Z,91.63
2023-04-25T06:19:29.362Z,91.63
2023-04-25T06:22:03.940Z,91.47
2023-04-25T06:24:37.675Z,91.50
2023-04-25T06:27:09.969Z,91.47
2023-04-25T06:29:42.125Z,91.31
2023-04-25T06:32:14.436Z,90.77
2023-04-25T06:34:46.810Z,89.98
2023-04-25T06:37:19.189Z,90.76
2023-04-25T06:39:54.382Z,90.71
2023-04-25T06:42:26.702Z,90.38
2023-04-25T06:45:04.397Z,90.14
2023-04-25T06:47:37.214Z,88.92
2023-04-25T06:50:12.031Z,89.75
2023-04-25T06:52:45.202Z,88.96
2023-04-25T06:55:17.463Z,89.18
2023-04-25T06:58:11.910Z,88.51
2023-04-25T07:01:09.378Z,88.68
2023-04-25T07:03:44.170Z,88.67
2023-04-25T07:06:20.610Z,88.42
2023-04-25T07:08:53.336Z,88.10
2023-04-25T07:11:26.103Z,87.86
2023-04-25T07:14:01.075Z,87.89
2023-04-25T07:16:35.507Z,87.82
2023-04-25T07:19:08.223Z,88.26
2023-04-25T07:21:40.558Z,87.77
2023-04-25T07:24:12.772Z,87.82
2023-04-25T07:26:49.659Z,87.10
2023-04-25T07:29:45.323Z,86.80
2023-04-25T07:32:17.682Z,86.19
2023-04-25T07:34:53.319Z,85.97
2023-04-25T07:37:26.432Z,86.02
2023-04-25T07:40:09.026Z,85.35
2023-04-25T07:42:41.800Z,85.46
2023-04-25T07:45:14.892Z,84.60
2023-04-25T07:47:47.089Z,85.69
2023-04-25T07:50:19.600Z,86.02
2023-04-25T07:52:55.355Z,85.94
2023-04-25T07:55:32.645Z,85.13
2023-04-25T07:58:08.916Z,85.28
2023-04-25T08:00:42.710Z,84.23
2023-04-25T08:03:50.152Z,82.26
2023-04-25T08:06:28.969Z,82.93
2023-04-25T08:09:09.800Z,83.24
2023-04-25T08:11:44.416Z,82.22
2023-04-25T08:14:17.904Z,82.54
2023-04-25T08:16:50.352Z,81.88
2023-04-25T08:19:22.977Z,81.73
2023-04-25T08:21:56.770Z,81.96
2023-04-25T08:24:32.845Z,80.91
2023-04-25T08:27:04.958Z,80.14
2023-04-25T08:29:37.710Z,80.09
2023-04-25T08:32:09.886Z,80.25
2023-04-25T08:34:44.995Z,80.17
2023-04-25T08:37:17.333Z,79.97
2023-04-25T08:39:54.706Z,79.49
2023-04-25T08:42:43.245Z,78.27
2023-04-25T08:45:15.741Z,78.24
2023-04-25T08:47:50.950Z,79.19
2023-04-25T08:50:24.522Z,79.61
2023-04-25T08:53:04.834Z,78.97
2023-04-25T08:55:38.719Z,78.40
2023-04-25T08:58:12.329Z,78.74
2023-04-25T09:00:45.145Z,78.18
2023-04-25T09:03:17.456Z,76.35
2023-04-25T09:05:56.601Z,75.68
2023-04-25T09:08:28.741Z,75.47
2023-04-25T09:11:00.808Z,75.84
2023-04-25T09:13:33.270Z,75.97
2023-04-25T09:16:23.189Z,75.90
2023-04-25T09:19:38.862Z,75.53
2023-04-25T09:22:23.828Z,75.94
2023-04-25T09:24:56.590Z,73.78
2023-04-25T09:27:31.133Z,74.53
2023-04-25T09:30:32.829Z,75.23
2023-04-25T09:33:17.003Z,75.47
2023-04-25T09:35:56.527Z,75.07
2023-04-25T09:38:47.365Z,75.43
2023-04-25T09:41:29.687Z,74.81
2023-04-25T09:44:05.505Z,74.16
2023-04-25T09:46:40.782Z,74.42
2023-04-25T09:49:18.365Z,73.99
2023-04-25T09:52:09.705Z,74.41
2023-04-25T09:55:07.038Z,71.17
2023-04-25T09:57:41.016Z,70.44
2023-04-25T10:00:15.988Z,71.29
2023-04-25T10:02:49.732Z,70.78
2023-04-25T10:05:49.796Z,70.53
2023-04-25T10:08:24.910Z,70.58
2023-04-25T10:10:57.048Z,70.43
2023-04-25T10:13:29.533Z,68.57
2023-04-25T10:16:04.325Z,70.22
2023-04-25T10:18:36.654Z,70.06
2023-04-25T10:21:09.310Z,69.99
2023-04-25T10:23:42.475Z,69.42
2023-04-25T10:26:15.566Z,68.88
2023-04-25T10:29:01.079Z,68.98
2023-04-25T10:31:35.554Z,69.84
2023-04-25T10:34:08.586Z,69.41
2023-04-25T10:36:41.355Z,68.95
2023-04-25T10:39:13.526Z,68.12
2023-04-25T10:41:54.761Z,68.47
2023-04-25T10:44:28.582Z,67.23
2023-04-25T10:47:02.517Z,66.29
2023-04-25T10:49:37.335Z,67.13
2023-04-25T10:52:27.881Z,68.26
2023-04-25T10:54:59.406Z,67.57
2023-04-25T10:57:39.042Z,68.36
2023-04-25T11:00:16.457Z,67.51
2023-04-25T11:02:53.685Z,67.06
2023-04-25T11:05:38.497Z,66.86
2023-04-25T11:08:17.475Z,64.59
2023-04-25T11:10:52.200Z,65.52
2023-04-25T11:13:31.232Z,64.98
2023-04-25T11:16:12.565Z,61.80
2023-04-25T11:18:47.005Z,63.38
2023-04-25T11:21:20.598Z,64.34
2023-04-25T11:23:53.201Z,63.71
2023-04-25T11:26:26.670Z,64.73
2023-04-25T11:29:02.793Z,63.30
2023-04-25T11:31:35.185Z,64.23
2023-04-25T11:34:07.431Z,64.86
2023-04-25T11:36:41.192Z,64.68
2023-04-25T11:39:13.514Z,64.76
2023-04-25T11:41:46.569Z,64.69
2023-04-25T11:44:22.082Z,64.51
2023-04-25T11:46:54.235Z,63.96
2023-04-25T11:49:28.871Z,63.87
2023-04-25T11:52:00.970Z,63.33
2023-04-25T11:54:33.180Z,63.12
2023-04-25T11:57:06.287Z,63.77
2023-04-25T11:59:40.724Z,63.15
2023-04-25T12:02:28.122Z,63.99
2023-04-25T12:05:21.625Z,63.56
2023-04-25T12:07:57.076Z,63.34
2023-04-25T12:10:29.214Z,63.47
2023-04-25T12:13:01.472Z,63.73
2023-04-25T12:15:38.278Z,63.44
2023-04-25T12:18:10.381Z,63.87
2023-04-25T12:23:51.517Z,62.93
2023-04-25T12:26:23.518Z,62.97
2023-04-25T12:28:55.635Z,62.13
2023-04-25T12:31:28.208Z,62.39
2023-04-25T12:34:00.367Z,62.39
2023-04-25T12:36:32.865Z,62.83
2023-04-25T12:39:05.483Z,62.99
2023-04-25T12:41:39.979Z,62.79
2023-04-25T12:44:12.183Z,63.40
2023-04-25T12:46:44.373Z,63.36
2023-04-25T12:49:19.126Z,62.62
2023-04-25T12:52:09.042Z,62.89
2023-04-25T12:54:41.342Z,63.49
2023-04-25T12:57:13.520Z,62.91
2023-04-25T12:59:45.538Z,62.38
2023-04-25T13:02:17.744Z,62.61
2023-04-25T13:04:50.128Z,62.47
2023-04-25T13:07:22.665Z,62.21
2023-04-25T13:09:54.978Z,62.85
2023-04-25T13:12:29.817Z,62.86
2023-04-25T13:15:01.886Z,63.02
2023-04-25T13:17:33.950Z,62.16
2023-04-25T13:20:09.688Z,62.69
2023-04-25T13:22:42.879Z,62.94
2023-04-25T13:25:14.899Z,63.22
2023-04-25T13:27:47.487Z,62.77
2023-04-25T13:30:19.642Z,63.27
2023-04-25T13:32:52.223Z,62.88
2023-04-25T13:35:27.230Z,62.31
2023-04-25T13:38:05.859Z,62.25
2023-04-25T13:40:38.259Z,62.49
2023-04-25T13:43:10.315Z,62.69
2023-04-25T13:45:43.346Z,62.80
2023-04-25T13:48:15.374Z,62.30
2023-04-25T13:50:47.932Z,62.36
2023-04-25T13:53:20.089Z,62.47
2023-04-25T13:55:52.352Z,62.29
2023-04-25T13:58:24.815Z,62.08
2023-04-25T14:00:57.231Z,62.18
2023-04-25T14:03:30.064Z,62.42
2023-04-25T14:06:02.756Z,62.34
2023-04-25T14:08:34.885Z,62.32
2023-04-25T14:11:09.657Z,62.55
2023-04-25T14:13:41.784Z,63.25
2023-04-25T14:16:14.207Z,62.98
2023-04-25T14:18:46.406Z,62.61
2023-04-25T14:21:18.913Z,62.71
2023-04-25T14:23:51.281Z,62.15
2023-04-25T14:26:23.714Z,61.83
2023-04-25T14:28:56.601Z,62.18
2023-04-25T14:31:29.042Z,62.51
2023-04-25T14:34:07.740Z,62.66
2023-04-25T14:36:41.130Z,62.67
2023-04-25T14:39:13.551Z,62.59
2023-04-25T14:41:45.652Z,62.88
2023-04-25T14:44:34.218Z,62.63
2023-04-25T14:47:06.614Z,62.96
2023-04-25T14:49:38.764Z,63.19
2023-04-25T14:52:10.890Z,62.32
2023-04-25T14:54:43.130Z,62.46
2023-04-25T14:57:15.922Z,62.63
2023-04-25T14:59:48.804Z,63.05
2023-04-25T15:02:21.324Z,62.99
2023-04-25T15:04:53.766Z,63.00
2023-04-25T15:07:26.878Z,62.64
2023-04-25T15:09:59.168Z,62.22
2023-04-25T15:12:31.454Z,61.95
2023-04-25T15:15:03.739Z,61.93
2023-04-25T15:17:35.816Z,61.99
2023-04-25T15:20:10.914Z,61.38
2023-04-25T15:22:49.742Z,61.53
2023-04-25T15:25:21.915Z,61.68
2023-04-25T15:27:54.709Z,62.20
2023-04-25T15:30:27.329Z,61.73
2023-04-25T15:33:02.272Z,62.01
2023-04-25T15:35:34.699Z,60.81
2023-04-25T15:38:07.473Z,60.97
2023-04-25T15:40:43.743Z,60.84
2023-04-25T15:43:17.449Z,60.15
2023-04-25T15:45:49.549Z,60.52
2023-04-25T15:48:21.737Z,60.26
2023-04-25T15:50:53.952Z,59.45
2023-04-25T15:53:26.201Z,60.06
2023-04-25T15:55:58.337Z,59.86
2023-04-25T15:58:30.910Z,59.40
2023-04-25T16:01:04.910Z,59.72
2023-04-25T16:03:38.057Z,60.05
2023-04-25T16:06:12.844Z,60.40
2023-04-25T16:08:45.264Z,60.11
2023-04-25T16:11:17.574Z,60.02
2023-04-25T16:13:55.255Z,60.36
2023-04-25T16:16:27.599Z,60.52
2023-04-25T16:19:02.311Z,60.20
2023-04-25T16:21:34.810Z,60.77
2023-04-25T16:24:07.555Z,60.35
2023-04-25T16:26:42.832Z,59.91
2023-04-25T16:29:17.464Z,60.17
2023-04-25T16:31:50.087Z,60.19
2023-04-25T16:34:23.498Z,60.17
2023-04-25T16:36:56.385Z,58.92
2023-04-25T16:39:28.627Z,59.58
2023-04-25T16:42:02.364Z,59.44
2023-04-25T16:44:36.673Z,59.71
2023-04-25T16:47:08.979Z,60.04
2023-04-25T16:49:41.448Z,59.55
2023-04-25T16:52:13.768Z,59.21
2023-04-25T16:54:46.190Z,59.26
2023-04-25T16:57:18.440Z,59.43
2023-04-25T16:59:50.726Z,59.00
2023-04-25T17:02:23.103Z,59.12
2023-04-25T17:04:55.926Z,59.02
2023-04-25T17:07:28.917Z,58.95
2023-04-25T17:10:04.105Z,59.17
2023-04-25T17:12:36.671Z,59.56
2023-04-25T17:15:10.904Z,59.27
2023-04-25T17:17:43.032Z,59.45
2023-04-25T17:20:18.349Z,59.78
2023-04-25T17:22:50.521Z,59.81
2023-04-25T17:25:23.538Z,60.24
2023-04-25T17:27:55.846Z,59.90
2023-04-25T17:30:28.441Z,59.77
2023-04-25T17:33:01.653Z,60.19
2023-04-25T17:35:34.108Z,59.70
2023-04-25T17:38:06.854Z,60.17
2023-04-25T17:40:39.030Z,60.16
2023-04-25T17:43:11.303Z,60.53
2023-04-25T17:45:43.672Z,60.46
2023-04-25T17:48:15.865Z,60.56
2023-04-25T17:50:48.170Z,60.78
2023-04-25T17:53:21.490Z,60.90
2023-04-25T17:55:53.952Z,61.03
2023-04-25T17:58:27.273Z,61.18
2023-04-25T18:01:00.442Z,61.57
2023-04-25T18:03:38.156Z,61.76
2023-04-25T18:06:10.977Z,61.95
2023-04-25T18:08:49.416Z,61.93
2023-04-25T18:11:35.864Z,62.38
2023-04-25T18:14:14.163Z,62.44
2023-04-25T18:16:46.588Z,62.47
2023-04-25T18:19:21.617Z,62.73
2023-04-25T18:21:55.520Z,62.78
2023-04-25T18:24:28.471Z,62.98
2023-04-25T18:27:06.036Z,63.06
2023-04-25T18:29:38.645Z,62.93
2023-04-25T18:32:11.289Z,63.59
2023-04-25T18:34:46.161Z,63.61
2023-04-25T18:37:18.770Z,63.72
2023-04-25T18:39:50.970Z,63.71
2023-04-25T18:42:23.915Z,63.88
2023-04-25T18:44:56.242Z,64.03
2023-04-25T18:47:28.405Z,64.16
2023-04-25T18:50:00.572Z,64.41
2023-04-25T18:52:33.446Z,64.77
2023-04-25T18:55:10.257Z,64.93
2023-04-25T18:57:43.521Z,65.31
2023-04-25T19:00:17.525Z,65.69
2023-04-25T19:02:49.834Z,66.09
2023-04-25T19:05:22.155Z,66.46
2023-04-25T19:07:54.217Z,66.51
2023-04-25T19:10:27.086Z,66.70
2023-04-25T19:12:59.289Z,66.86
2023-04-25T19:15:33.489Z,67.19
2023-04-25T19:18:05.759Z,67.13
2023-04-25T19:20:40.899Z,67.45
2023-04-25T19:23:16.019Z,67.76
2023-04-25T19:25:48.154Z,68.17
2023-04-25T19:28:20.697Z,68.45
2023-04-25T19:30:52.985Z,68.76
2023-04-25T19:33:25.276Z,69.00
2023-04-25T19:35:57.834Z,69.48
2023-04-25T19:38:30.226Z,70.37
2023-04-25T19:41:02.483Z,70.30
2023-04-25T19:43:34.763Z,71.28
2023-04-25T19:46:07.324Z,71.47
2023-04-25T19:48:39.559Z,71.39
2023-04-25T19:51:12.229Z,71.96
2023-04-25T19:53:44.558Z,72.33
2023-04-25T19:56:16.896Z,72.27
2023-04-25T19:58:49.620Z,72.26
2023-04-25T20:01:22.897Z,72.75
2023-04-25T20:03:56.363Z,73.06
2023-04-25T20:06:29.570Z,73.58
2023-04-25T20:09:01.846Z,72.83
2023-04-25T20:11:35.141Z,72.70
2023-04-25T20:14:08.070Z,73.18
2023-04-25T20:16:40.855Z,73.52
2023-04-25T20:19:14.531Z,73.39
2023-04-25T20:21:47.355Z,73.35
2023-04-25T20:24:19.612Z,73.80
2023-04-25T20:26:51.880Z,73.35
2023-04-25T20:29:25.957Z,73.61
2023-04-25T20:32:00.240Z,73.71
2023-04-25T20:34:35.242Z,73.71
2023-04-25T20:37:09.087Z,73.89
2023-04-25T20:39:41.530Z,74.05
2023-04-25T20:42:16.166Z,73.75
2023-04-25T20:44:49.244Z,74.03
2023-04-25T20:47:22.205Z,74.41
2023-04-25T20:49:54.567Z,74.09
2023-04-25T20:52:26.817Z,74.30
2023-04-25T20:54:59.103Z,74.24
2023-04-25T20:57:31.753Z,74.27
2023-04-25T21:00:17.328Z,74.59
2023-04-25T21:02:51.348Z,75.14
2023-04-25T21:05:24.748Z,74.43
2023-04-25T21:07:57.599Z,74.63
2023-04-25T21:10:33.468Z,74.76
2023-04-25T21:13:07.027Z,75.05
2023-04-25T21:15:39.307Z,74.98
2023-04-25T21:18:11.673Z,74.86
2023-04-25T21:20:43.985Z,74.87
2023-04-25T21:23:16.969Z,75.17
2023-04-25T21:25:52.442Z,75.15
2023-04-25T21:28:26.120Z,75.25
2023-04-25T21:30:58.520Z,75.26
2023-04-25T21:33:31.270Z,75.32
2023-04-25T21:36:03.874Z,75.42
2023-04-25T21:38:38.629Z,75.23
2023-04-25T21:41:11.019Z,75.49
2023-04-25T21:43:43.226Z,75.49
2023-04-25T21:46:23.349Z,75.57
2023-04-25T21:48:56.451Z,75.63
2023-04-25T21:51:28.867Z,75.67
2023-04-25T21:54:05.220Z,75.76
2023-04-25T21:56:41.669Z,75.97
2023-04-25T21:59:15.168Z,76.00
2023-04-25T22:01:47.932Z,76.13
2023-04-25T22:04:20.744Z,75.88
2023-04-25T22:06:53.483Z,75.50
2023-04-25T22:09:25.808Z,75.55
2023-04-25T22:12:04.346Z,75.68
2023-04-25T22:14:38.224Z,75.41
2023-04-25T22:17:12.145Z,75.73
2023-04-25T22:19:44.967Z,75.48
2023-04-25T22:22:17.306Z,75.44
2023-04-25T22:24:53.213Z,75.39
2023-04-25T22:27:28.910Z,75.22
2023-04-25T22:30:01.095Z,75.26
2023-04-25T22:32:33.393Z,75.35
2023-04-25T22:35:06.031Z,75.24
2023-04-25T22:37:38.288Z,74.69
2023-04-25T22:40:12.139Z,74.67
2023-04-25T22:42:46.276Z,74.42
2023-04-25T22:45:18.778Z,74.36
2023-04-25T22:47:51.745Z,73.61
2023-04-25T22:50:25.888Z,73.26
2023-04-25T22:52:58.331Z,73.45
2023-04-25T22:55:31.619Z,73.15
2023-04-25T22:58:04.016Z,73.30
2023-04-25T23:00:36.227Z,72.63
2023-04-25T23:03:08.642Z,72.56
2023-04-25T23:05:45.138Z,71.25
2023-04-25T23:08:19.465Z,71.75
2023-04-25T23:10:51.993Z,71.64
2023-04-25T23:13:24.857Z,71.11
2023-04-25T23:15:57.389Z,71.19
2023-04-25T23:18:29.667Z,71.46
2023-04-25T23:21:05.331Z,70.54
2023-04-25T23:23:38.184Z,70.44
2023-04-25T23:26:14.129Z,70.71
2023-04-25T23:28:46.975Z,70.28
2023-04-25T23:31:19.258Z,70.21
2023-04-25T23:33:51.655Z,70.22
2023-04-25T23:36:23.915Z,70.39
2023-04-25T23:38:57.205Z,70.39
2023-04-25T23:41:29.457Z,69.97
2023-04-25T23:44:07.857Z,70.14
2023-04-25T23:46:40.175Z,70.00
2023-04-25T23:49:12.722Z,69.54
2023-04-25T23:51:47.797Z,70.08
2023-04-25T23:54:26.986Z,69.59
2023-04-25T23:56:59.149Z,69.62
2023-04-25T23:59:31.785Z,69.08
